Weather at Alert Airport

Public forecast

Using degrees Celsius for public forecast. Weather courtesy of forecast.io.

Current aviation weather report (METAR) for Alert Airport

Report is more than 6 hours old.

2022/11/14 15:00 (retrieved 2 years ago)

CYLT 141500Z 19002KT 6SM -SN BKN050 M23/M26 A2999 RMK SC6 SLP162

Aviation forecast (TAF) for Alert Airport

Forecast is more than 12 hours old.

2023/02/22 14:09 Ammendment (retrieved 1 year ago)

TAF AMD TAF AMD CYLT 221706Z 2214/2224 CNL RMK END OF FLY PROGRAM NXT FCST BY 221800